Time;durP1;ratioP1;P1;durP2;ratioP2;P2;SDS_P1;SDS_P2;PMS_P1;PMS_P2;Temp;Humidity;BMP_temperature;BMP_pressure;BME280_temperature;BME280_humidity;BME280_pressure;Samples;Min_cycle;Max_cycle;Signal;HPM_P1;HPM_P2
2023/07/21 00:01:28;;;;;;;2.67;1.42;;;;;;;23.06;100.00;100076.47;5009174;28;20053;-75
2023/07/21 00:03:53;;;;;;;2.95;1.88;;;;;;;23.07;100.00;100080.84;5022397;28;20045;-77
2023/07/21 00:06:19;;;;;;;3.90;1.02;;;;;;;23.18;100.00;100109.69;5018368;28;20046;-76
2023/07/21 00:08:45;;;;;;;3.97;1.70;;;;;;;23.22;100.00;100110.34;5022792;28;20034;-77
2023/07/21 00:11:11;;;;;;;1.45;0.98;;;;;;;22.50;100.00;99998.44;5016119;28;20104;-77
2023/07/21 00:13:36;;;;;;;3.15;1.45;;;;;;;22.68;100.00;100025.06;5021475;28;20053;-75
2023/07/21 00:16:04;;;;;;;4.22;1.42;;;;;;;22.70;100.00;100024.03;5009597;28;20544;-75
2023/07/21 00:18:30;;;;;;;1.83;1.20;;;;;;;23.16;100.00;100111.59;5013993;28;20145;-75
2023/07/21 00:20:56;;;;;;;2.15;1.05;;;;;;;23.03;100.00;100113.22;5013890;28;20075;-76
2023/07/21 00:23:24;;;;;;;6.05;2.13;;;;;;;22.80;100.00;100085.91;5012888;28;20460;-77
2023/07/21 00:25:51;;;;;;;2.42;1.58;;;;;;;22.20;100.00;100006.31;5008729;28;20524;-77
2023/07/21 00:28:17;;;;;;;3.60;2.72;;;;;;;22.64;100.00;100101.06;5007121;28;20450;-77
2023/07/21 00:30:47;;;;;;;5.80;1.30;;;;;;;22.10;100.00;100013.06;5018156;28;20183;-76
2023/07/21 00:33:14;;;;;;;3.08;1.90;;;;;;;22.71;100.00;100116.72;5007977;28;20084;-76
2023/07/21 00:35:40;;;;;;;3.22;1.38;;;;;;;22.64;100.00;100119.81;5015621;28;20021;-78
2023/07/21 00:38:06;;;;;;;2.65;1.48;;;;;;;22.62;100.00;100116.38;5010738;28;20506;-76
2023/07/21 00:40:35;;;;;;;2.88;1.55;;;;;;;22.49;100.00;100116.16;5018396;28;20053;-78
2023/07/21 00:43:00;;;;;;;4.43;3.10;;;;;;;22.28;100.00;100135.06;5012560;28;20401;-77
2023/07/21 00:45:29;;;;;;;9.13;3.30;;;;;;;22.19;100.00;100115.97;5017154;28;20030;-76
2023/07/21 00:47:56;;;;;;;4.68;2.33;;;;;;;22.49;100.00;100135.75;5007248;28;20034;-76
2023/07/21 00:50:22;;;;;;;4.60;2.35;;;;;;;22.64;100.00;100135.84;5015822;28;20049;-78
2023/07/21 00:52:48;;;;;;;7.35;2.40;;;;;;;22.17;100.00;100041.19;5013916;28;20041;-76
2023/07/21 00:55:14;;;;;;;3.17;2.15;;;;;;;22.53;100.00;100083.81;5020942;28;20058;-75
2023/07/21 00:57:40;;;;;;;5.13;1.83;;;;;;;22.70;100.00;100106.97;5018917;28;20114;-77
2023/07/21 01:00:10;;;;;;;1.90;1.08;;;;;;;22.36;100.00;100072.31;5017632;28;20068;-76
2023/07/21 01:02:36;;;;;;;3.33;1.42;;;;;;;22.52;100.00;100129.34;5012563;28;20026;-78
2023/07/21 01:05:02;;;;;;;7.72;3.38;;;;;;;22.02;100.00;100018.84;5021414;28;20038;-75
2023/07/21 01:07:32;;;;;;;3.90;1.05;;;;;;;22.53;100.00;100080.28;5017412;28;20053;-78
2023/07/21 01:09:58;;;;;;;5.78;2.17;;;;;;;22.47;100.00;100113.56;5019698;28;20052;-75
2023/07/21 01:12:25;;;;;;;5.15;1.98;;;;;;;22.57;100.00;100121.09;5019829;28;20051;-77
2023/07/21 01:14:50;;;;;;;2.35;1.30;;;;;;;21.64;100.00;99954.13;5013043;28;20038;-76
2023/07/21 01:17:18;;;;;;;1.83;1.23;;;;;;;22.46;100.00;100113.66;5016190;28;20075;-75
2023/07/21 01:19:48;;;;;;;4.28;2.00;;;;;;;21.56;100.00;100031.09;5003302;28;20049;-77
2023/07/21 01:22:35;;;;;;;3.65;1.75;;;;;;;22.08;100.00;100133.44;5012130;28;20046;-75
2023/07/21 01:25:11;;;;;;;5.70;1.83;;;;;;;22.02;100.00;100114.19;5026334;28;20489;-77
2023/07/21 01:27:39;;;;;;;2.58;1.42;;;;;;;21.21;100.00;100021.25;5010833;28;20090;-76
2023/07/21 01:30:09;;;;;;;3.80;1.83;;;;;;;21.39;100.00;100029.25;5013684;28;20061;-76
2023/07/21 01:32:37;;;;;;;3.78;1.95;;;;;;;21.68;100.00;100046.47;5011952;28;20045;-76
2023/07/21 01:35:07;;;;;;;2.13;1.60;;;;;;;21.85;100.00;100064.31;5009436;28;20050;-78
2023/07/21 01:37:35;;;;;;;2.75;1.52;;;;;;;22.33;100.00;100148.19;5012521;28;20041;-77
2023/07/21 01:40:02;;;;;;;3.17;1.33;;;;;;;22.13;100.00;100118.00;5013914;28;20065;-79
2023/07/21 01:42:30;;;;;;;3.08;1.55;;;;;;;22.26;100.00;100138.78;5011271;28;20412;-77
2023/07/21 01:44:56;;;;;;;4.03;2.03;;;;;;;21.63;100.00;100049.41;5006672;28;20034;-77
2023/07/21 01:47:24;;;;;;;3.05;1.73;;;;;;;21.81;100.00;100081.44;5015475;28;20058;-77
2023/07/21 01:49:50;;;;;;;3.78;1.95;;;;;;;21.46;100.00;100038.72;5006459;28;20073;-78
2023/07/21 01:52:17;;;;;;;2.88;1.67;;;;;;;22.14;100.00;100154.47;5013217;28;20103;-78
2023/07/21 01:54:51;;;;;;;3.75;1.67;;;;;;;21.83;100.00;100093.75;5015976;28;20050;-77
2023/07/21 01:57:26;;;;;;;8.38;1.70;;;;;;;22.08;100.00;100164.66;5018842;28;20042;-78
2023/07/21 01:59:54;;;;;;;9.88;2.20;;;;;;;21.50;100.00;100070.50;5006563;28;20037;-77
2023/07/21 02:02:20;;;;;;;1.85;1.15;;;;;;;21.21;100.00;100108.44;5014761;28;20072;-77
2023/07/21 02:04:50;;;;;;;4.50;1.88;;;;;;;20.96;100.00;100082.97;5013597;28;20050;-79
2023/07/21 02:07:15;;;;;;;6.00;2.25;;;;;;;21.74;100.00;100185.03;5016203;28;20094;-77
2023/07/21 02:09:41;;;;;;;7.85;2.95;;;;;;;21.47;100.00;100173.94;5007271;28;20088;-77
2023/07/21 02:12:07;;;;;;;4.75;2.22;;;;;;;21.23;100.00;100087.88;5016239;28;20508;-76
2023/07/21 02:14:32;;;;;;;4.97;1.95;;;;;;;21.56;100.00;100141.41;5017012;28;20517;-76
2023/07/21 02:16:58;;;;;;;3.63;2.00;;;;;;;21.81;100.00;100185.59;5028200;28;20037;-76
2023/07/21 02:19:23;;;;;;;2.58;1.67;;;;;;;21.48;100.00;100191.69;5009485;28;20104;-76
2023/07/21 02:21:49;;;;;;;6.45;3.40;;;;;;;20.85;100.00;100143.94;5010774;28;20057;-76
2023/07/21 02:24:14;;;;;;;3.97;2.75;;;;;;;21.22;100.00;100252.47;5021794;28;20437;-80
2023/07/21 02:26:39;;;;;;;3.70;2.22;;;;;;;20.58;100.00;100146.06;5015204;28;20067;-77
2023/07/21 02:29:05;;;;;;;3.65;2.22;;;;;;;21.41;100.00;100256.97;5014534;28;20498;-76
2023/07/21 02:31:31;;;;;;;7.40;2.47;;;;;;;21.38;100.00;100246.44;5012414;28;20042;-76
2023/07/21 02:33:56;;;;;;;11.80;2.83;;;;;;;21.38;100.00;100265.13;5011558;28;20140;-77
2023/07/21 02:36:22;;;;;;;6.38;2.33;;;;;;;20.60;100.00;100150.44;5019923;28;20052;-76
2023/07/21 02:38:50;;;;;;;5.68;2.35;;;;;;;20.99;100.00;100288.22;5013599;28;20030;-76
2023/07/21 02:41:15;;;;;;;6.20;2.88;;;;;;;20.82;100.00;100293.44;4999165;28;20046;-75
2023/07/21 02:43:41;;;;;;;9.38;2.05;;;;;;;20.06;100.00;100205.16;4997310;28;20070;-75
2023/07/21 02:46:07;;;;;;;3.10;1.88;;;;;;;20.54;100.00;100321.28;5008356;28;20129;-76
2023/07/21 02:48:34;;;;;;;6.82;2.13;;;;;;;20.41;100.00;100299.59;5013178;28;20045;-77
2023/07/21 02:51:00;;;;;;;3.60;2.00;;;;;;;20.05;100.00;100237.22;4997590;28;20037;-76
2023/07/21 02:53:26;;;;;;;7.68;3.08;;;;;;;20.59;100.00;100315.78;5009528;28;20195;-77
2023/07/21 02:55:52;;;;;;;6.88;3.40;;;;;;;19.98;100.00;100201.97;4992312;28;20061;-77
2023/07/21 02:58:18;;;;;;;5.75;3.03;;;;;;;20.72;100.00;100297.44;4991489;28;20479;-78
2023/07/21 03:00:44;;;;;;;4.78;2.70;;;;;;;20.59;100.00;100305.97;5001709;28;20052;-76
2023/07/21 03:03:15;;;;;;;2.40;1.60;;;;;;;20.53;100.00;100311.53;5007799;28;20497;-77
2023/07/21 03:05:41;;;;;;;3.40;1.95;;;;;;;20.49;100.00;100298.44;5000025;28;20030;-77
2023/07/21 03:08:07;;;;;;;6.25;2.47;;;;;;;19.79;100.00;100191.25;5005124;28;20052;-76
2023/07/21 03:10:33;;;;;;;6.63;2.97;;;;;;;20.41;100.00;100307.59;4996560;28;20125;-76
2023/07/21 03:12:58;;;;;;;6.22;2.95;;;;;;;20.46;100.00;100315.38;5000837;28;20137;-76
2023/07/21 03:15:24;;;;;;;5.07;3.53;;;;;;;20.35;100.00;100320.34;5010356;28;20054;-77
2023/07/21 03:17:50;;;;;;;5.70;2.47;;;;;;;20.50;100.00;100338.31;4995349;28;20034;-77
2023/07/21 03:20:16;;;;;;;4.25;2.42;;;;;;;19.98;100.00;100240.13;5019167;28;20048;-77
2023/07/21 03:22:44;;;;;;;5.95;3.65;;;;;;;20.04;100.00;100252.31;4994948;28;20137;-75
2023/07/21 03:25:13;;;;;;;7.75;3.08;;;;;;;20.36;100.00;100298.06;4996226;28;20034;-76
2023/07/21 03:27:39;;;;;;;5.47;2.80;;;;;;;20.29;100.00;100283.28;5005814;28;20045;-76
2023/07/21 03:30:06;;;;;;;3.53;1.88;;;;;;;19.97;100.00;100229.53;4993130;28;20026;-75
2023/07/21 03:32:31;;;;;;;5.35;2.45;;;;;;;20.60;100.00;100321.06;5014880;28;20069;-75
2023/07/21 03:34:57;;;;;;;3.92;2.40;;;;;;;20.89;100.00;100334.91;5015664;28;20050;-76
2023/07/21 03:37:23;;;;;;;4.15;2.15;;;;;;;20.89;100.00;100310.91;5012816;28;20546;-76
2023/07/21 03:39:49;;;;;;;5.68;3.20;;;;;;;20.10;100.00;100158.84;5013885;28;20051;-76
2023/07/21 03:42:14;;;;;;;7.55;2.75;;;;;;;21.25;100.00;100344.88;5008306;28;20041;-75
2023/07/21 03:44:40;;;;;;;3.35;2.80;;;;;;;21.34;100.00;100341.78;5013372;28;20034;-75
2023/07/21 03:47:05;;;;;;;3.45;2.65;;;;;;;;;;5016045;28;20493;-75
2023/07/21 03:49:31;;;;;;;3.83;2.38;;;;;;;20.94;100.00;100239.53;5012696;28;20045;-77
2023/07/21 03:51:56;;;;;;;4.05;2.80;;;;;;;21.52;100.00;100325.88;5016167;28;20460;-78
2023/07/21 03:54:22;;;;;;;5.93;2.42;;;;;;;21.14;100.00;100251.97;5017656;28;20041;-74
2023/07/21 03:56:48;;;;;;;3.75;2.10;;;;;;;21.28;100.00;100304.69;5006558;28;20026;-76
2023/07/21 03:59:13;;;;;;;4.80;2.28;;;;;;;21.50;100.00;100315.28;5018358;28;20445;-74
2023/07/21 04:01:39;;;;;;;2.17;1.45;;;;;;;21.73;100.00;100353.38;5015228;28;20068;-74
2023/07/21 04:04:04;;;;;;;4.03;2.70;;;;;;;21.74;100.00;100357.81;5019409;28;20323;-77
2023/07/21 04:06:30;;;;;;;5.25;2.67;;;;;;;21.83;100.00;100357.38;5018959;28;20056;-76
2023/07/21 04:08:55;;;;;;;2.70;1.15;;;;;;;21.80;100.00;100355.72;5015212;28;20034;-76
2023/07/21 04:11:21;;;;;;;6.05;3.33;;;;;;;21.91;100.00;100347.16;5017273;28;20025;-76
2023/07/21 04:13:46;;;;;;;6.50;3.17;;;;;;;21.61;100.00;100293.41;5015178;28;20049;-77
2023/07/21 04:16:12;;;;;;;5.13;3.55;;;;;;;21.97;100.00;100349.56;5008359;28;20088;-74
2023/07/21 04:18:38;;;;;;;4.90;2.58;;;;;;;21.41;100.00;100238.28;5011770;28;20057;-78
2023/07/21 04:21:04;;;;;;;4.95;2.30;;;;;;;22.07;100.00;100344.63;5008756;28;20026;-76
2023/07/21 04:23:29;;;;;;;5.18;3.10;;;;;;;21.52;100.00;100246.66;5013437;28;20029;-78
2023/07/21 04:25:55;;;;;;;4.15;2.58;;;;;;;21.58;100.00;100245.50;5037615;28;20049;-76
2023/07/21 04:28:21;;;;;;;4.45;2.13;;;;;;;22.07;100.00;100353.50;5008984;28;20141;-75
2023/07/21 04:30:47;;;;;;;7.50;2.22;;;;;;;22.08;100.00;100352.56;5045939;28;20046;-76
2023/07/21 04:33:13;;;;;;;4.53;2.33;;;;;;;21.80;100.00;100293.41;5007824;28;20088;-76
2023/07/21 04:35:48;;;;;;;5.47;3.17;;;;;;;22.21;100.00;100346.66;5013368;28;20088;-76
2023/07/21 04:38:14;;;;;;;3.53;1.67;;;;;;;21.55;100.00;100246.50;5013174;28;20153;-75
2023/07/21 04:40:44;;;;;;;3.53;1.88;;;;;;;22.08;100.00;100333.88;5010838;28;20456;-76
2023/07/21 04:43:11;;;;;;;6.50;2.78;;;;;;;22.08;100.00;100299.13;5002595;28;20049;-74
2023/07/21 04:45:42;;;;;;;2.25;1.48;;;;;;;22.37;100.00;100328.03;5013605;28;20057;-75
2023/07/21 04:48:08;;;;;;;4.20;2.30;;;;;;;22.46;100.00;100336.47;5013901;28;20060;-76
2023/07/21 04:50:33;;;;;;;4.05;2.28;;;;;;;22.47;100.00;100338.19;5010702;28;20463;-77
2023/07/21 04:52:59;;;;;;;2.38;1.60;;;;;;;22.69;100.00;100351.34;5009207;28;20127;-76
2023/07/21 04:55:26;;;;;;;2.85;2.05;;;;;;;22.17;100.00;100254.16;5008270;28;20077;-79
2023/07/21 04:57:52;;;;;;;7.63;5.22;;;;;;;22.20;100.00;100260.22;5009410;28;20057;-76
2023/07/21 05:00:17;;;;;;;4.70;2.58;;;;;;;22.81;100.00;100349.84;5014680;28;20808;-76
2023/07/21 05:02:43;;;;;;;5.60;2.92;;;;;;;22.29;100.00;100269.63;5009780;28;20120;-77
2023/07/21 05:05:09;;;;;;;1.65;1.10;;;;;;;22.91;100.00;100371.63;5009147;28;20054;-76
2023/07/21 05:07:34;;;;;;;6.20;3.65;;;;;;;23.15;100.00;100377.53;5006191;28;20391;-76
2023/07/21 05:10:00;;;;;;;2.90;1.83;;;;;;;23.20;100.00;100388.00;5005245;28;20049;-76
2023/07/21 05:12:25;;;;;;;2.72;2.20;;;;;;;22.90;100.00;100308.38;5002151;28;20042;-76
2023/07/21 05:14:51;;;;;;;2.45;1.45;;;;;;;23.49;100.00;100391.81;5009060;28;20037;-75
2023/07/21 05:17:17;;;;;;;4.18;2.20;;;;;;;23.94;100.00;100382.22;5003866;28;20029;-78
2023/07/21 05:19:44;;;;;;;3.67;1.70;;;;;;;24.21;100.00;100382.47;5010901;28;20401;-78
2023/07/21 05:22:10;;;;;;;4.40;2.38;;;;;;;23.90;100.00;100276.97;5011211;28;20038;-78
2023/07/21 05:24:35;;;;;;;2.70;1.65;;;;;;;24.45;100.00;100305.09;5004540;28;20059;-77
2023/07/21 05:27:01;;;;;;;4.82;3.30;;;;;;;25.46;100.00;100375.94;5006961;28;20778;-76
2023/07/21 05:29:27;;;;;;;6.15;2.00;;;;;;;25.52;100.00;100300.34;5009955;28;20181;-78
2023/07/21 05:31:52;;;;;;;3.15;2.03;;;;;;;25.69;100.00;100359.22;5010931;28;20414;-77
2023/07/21 05:34:20;;;;;;;2.67;1.35;;;;;;;25.14;100.00;100284.78;5011341;28;20401;-76
2023/07/21 05:36:46;;;;;;;3.53;2.10;;;;;;;25.79;100.00;100308.44;5017469;28;20053;-77
2023/07/21 05:39:12;;;;;;;5.03;2.42;;;;;;;26.55;100.00;100389.59;5009172;28;20208;-77
2023/07/21 05:41:38;;;;;;;4.45;2.28;;;;;;;26.93;100.00;100398.63;5013706;28;20068;-77
2023/07/21 05:44:04;;;;;;;2.63;1.02;;;;;;;26.60;100.00;100291.44;5012220;28;20080;-76
2023/07/21 05:46:30;;;;;;;3.90;2.13;;;;;;;27.29;100.00;100410.53;5013035;28;20440;-77
2023/07/21 05:48:55;;;;;;;4.93;2.95;;;;;;;27.09;100.00;100290.69;5012802;28;20359;-77
2023/07/21 05:51:20;;;;;;;2.70;1.77;;;;;;;26.04;100.00;100307.72;5016051;28;20038;-76
2023/07/21 05:53:46;;;;;;;1.75;1.50;;;;;;;27.16;100.00;100301.91;5016086;28;20029;-76
2023/07/21 05:56:11;;;;;;;5.80;2.75;;;;;;;28.23;100.00;100392.19;5022370;28;20092;-78
2023/07/21 05:58:37;;;;;;;3.58;1.35;;;;;;;27.55;100.00;100360.16;5015058;28;20050;-76
2023/07/21 06:01:03;;;;;;;4.75;3.08;;;;;;;27.09;100.00;100333.78;5016204;28;20545;-78
2023/07/21 06:03:30;;;;;;;3.90;1.83;;;;;;;27.99;100.00;100376.84;5018568;28;20076;-79
2023/07/21 06:05:56;;;;;;;3.28;1.42;;;;;;;27.63;100.00;100337.19;5006283;28;20033;-77
2023/07/21 06:08:24;;;;;;;3.15;2.25;;;;;;;28.41;100.00;100405.16;5017697;28;20026;-78
2023/07/21 06:10:51;;;;;;;3.65;1.95;;;;;;;28.78;100.00;100412.38;5022468;28;20503;-78
2023/07/21 06:13:16;;;;;;;2.67;1.25;;;;;;;28.26;100.00;100346.94;5014166;28;20489;-77
2023/07/21 06:15:41;;;;;;;1.98;1.48;;;;;;;28.80;100.00;100415.81;5010389;28;20046;-77
2023/07/21 06:18:07;;;;;;;4.68;1.67;;;;;;;28.24;100.00;100393.88;5022738;28;20030;-77
2023/07/21 06:20:32;;;;;;;2.95;1.63;;;;;;;28.70;100.00;100395.88;5009181;28;20033;-78
2023/07/21 06:22:58;;;;;;;5.13;3.20;;;;;;;28.47;100.00;100313.91;5046428;28;20072;-77
2023/07/21 06:25:24;;;;;;;3.67;2.42;;;;;;;28.65;100.00;100384.56;5007943;28;20108;-77
2023/07/21 06:27:50;;;;;;;2.65;1.52;;;;;;;28.78;100.00;100409.66;5020451;28;20050;-77
2023/07/21 06:30:16;;;;;;;3.30;1.77;;;;;;;28.85;99.80;100372.25;5006232;28;20049;-78
2023/07/21 06:32:43;;;;;;;2.78;1.45;;;;;;;28.10;100.00;100308.59;5016021;28;20037;-77
2023/07/21 06:35:09;;;;;;;1.73;1.45;;;;;;;28.47;100.00;100347.19;5014560;28;20168;-77
2023/07/21 06:37:37;;;;;;;4.15;2.10;;;;;;;28.41;100.00;100396.22;5012969;28;20038;-78
2023/07/21 06:40:06;;;;;;;4.25;1.73;;;;;;;28.69;100.00;100373.41;5010947;28;20046;-77
2023/07/21 06:42:33;;;;;;;5.75;2.47;;;;;;;28.74;100.00;100408.16;5007825;28;20486;-76
2023/07/21 06:44:58;;;;;;;5.82;3.30;;;;;;;28.51;100.00;100301.91;5010109;28;20036;-77
2023/07/21 06:47:24;;;;;;;3.13;1.27;;;;;;;28.58;100.00;100300.47;5019257;28;20153;-79
2023/07/21 06:49:49;;;;;;;2.22;1.23;;;;;;;29.20;99.95;100394.69;5011152;28;20128;-80
2023/07/21 06:52:15;;;;;;;3.25;1.63;;;;;;;28.90;100.00;100395.22;4999712;28;20057;-69
2023/07/21 06:54:40;;;;;;;5.80;1.38;;;;;;;28.67;100.00;100396.97;5010097;28;20154;-71
2023/07/21 06:57:06;;;;;;;4.00;2.33;;;;;;;28.67;100.00;100402.38;5016095;28;20461;-69
2023/07/21 06:59:33;;;;;;;3.20;1.60;;;;;;;28.50;100.00;100387.44;5016599;28;20094;-69
2023/07/21 07:01:59;;;;;;;3.25;1.98;;;;;;;28.96;100.00;100389.34;5019306;28;20750;-70
2023/07/21 07:04:25;;;;;;;2.70;1.85;;;;;;;28.33;100.00;100388.69;5023662;28;20033;-69
2023/07/21 07:06:52;;;;;;;2.42;1.55;;;;;;;28.27;100.00;100399.09;5015006;28;20038;-69
2023/07/21 07:09:18;;;;;;;4.32;2.90;;;;;;;28.67;100.00;100375.34;5018487;28;20473;-69
2023/07/21 07:11:44;;;;;;;4.55;1.60;;;;;;;28.35;100.00;100400.25;5020515;28;20038;-70
2023/07/21 07:14:10;;;;;;;2.75;1.83;;;;;;;27.99;100.00;100293.22;5023047;28;20057;-70
2023/07/21 07:16:35;;;;;;;3.20;1.70;;;;;;;28.59;100.00;100404.81;5010464;28;20112;-69
2023/07/21 07:19:01;;;;;;;3.30;1.88;;;;;;;28.82;100.00;100403.91;5020596;28;20046;-69
2023/07/21 07:21:26;;;;;;;2.35;1.40;;;;;;;27.94;100.00;100314.28;5014719;28;20042;-68
2023/07/21 07:23:52;;;;;;;1.42;0.93;;;;;;;28.02;100.00;100340.66;5007182;28;20042;-70
2023/07/21 07:26:17;;;;;;;3.83;1.50;;;;;;;28.31;100.00;100381.69;4996964;28;20026;-68
2023/07/21 07:28:43;;;;;;;3.25;1.88;;;;;;;28.10;100.00;100398.50;5012028;28;20053;-68
2023/07/21 07:31:09;;;;;;;1.77;1.33;;;;;;;28.09;100.00;100374.31;5011198;28;20121;-66
2023/07/21 07:33:34;;;;;;;2.65;1.23;;;;;;;27.33;100.00;100303.41;5012741;28;20056;-65
2023/07/21 07:36:00;;;;;;;2.58;1.48;;;;;;;27.56;100.00;100307.16;5012270;28;20540;-63
2023/07/21 07:38:28;;;;;;;8.70;1.80;;;;;;;27.82;100.00;100328.66;5011771;28;20112;-64
2023/07/21 07:40:54;;;;;;;3.15;2.03;;;;;;;27.54;100.00;100304.53;5004611;28;20053;-65
2023/07/21 07:43:20;;;;;;;2.97;1.70;;;;;;;28.25;100.00;100399.19;4988079;28;20050;-65
2023/07/21 07:45:45;;;;;;;3.85;2.42;;;;;;;27.85;97.87;100294.22;5011863;28;20727;-67
2023/07/21 07:48:11;;;;;;;3.95;2.20;;;;;;;27.93;100.00;100398.84;5011077;28;20059;-66
2023/07/21 07:50:39;;;;;;;3.03;1.55;;;;;;;27.59;97.16;100285.34;5012260;28;20494;-66
2023/07/21 07:53:08;;;;;;;1.48;0.85;;;;;;;28.50;95.20;100389.28;5015494;28;20050;-64
2023/07/21 07:55:41;;;;;;;4.55;2.17;;;;;;;28.18;98.71;100365.53;5013319;28;20042;-64
2023/07/21 07:58:07;;;;;;;;;;;;;;;28.48;94.98;100404.75;5004278;28;20072;-66
2023/07/21 08:00:35;;;;;;;4.15;2.00;;;;;;;28.52;93.52;100395.44;5007261;28;20221;-66
2023/07/21 08:03:04;;;;;;;3.40;2.17;;;;;;;28.46;92.27;100377.84;5007683;28;20049;-65
2023/07/21 08:05:29;;;;;;;3.00;1.70;;;;;;;28.61;90.56;100405.53;4998729;28;20069;-66
2023/07/21 08:07:58;;;;;;;2.53;1.15;;;;;;;28.44;91.12;100390.56;5000828;28;20968;-64
2023/07/21 08:10:27;;;;;;;2.92;2.22;;;;;;;28.05;88.06;100322.44;5000833;28;20077;-64
2023/07/21 08:12:53;;;;;;;3.83;1.80;;;;;;;28.51;85.00;100310.88;5003278;28;20053;-65
2023/07/21 08:15:19;;;;;;;3.38;1.92;;;;;;;28.70;84.56;100323.81;5002216;28;20038;-65
2023/07/21 08:17:44;;;;;;;5.95;2.38;;;;;;;28.53;84.40;100335.06;5005226;28;20084;-65
2023/07/21 08:20:10;;;;;;;4.10;1.98;;;;;;;29.00;84.86;100338.63;5004806;28;20123;-65
2023/07/21 08:22:36;;;;;;;5.30;1.85;;;;;;;28.89;84.77;100352.94;4996968;28;20156;-65
2023/07/21 08:25:01;;;;;;;2.67;1.88;;;;;;;28.74;85.13;100359.56;5005643;28;20438;-65
2023/07/21 08:27:27;;;;;;;5.97;1.63;;;;;;;28.60;80.97;100328.22;5005194;28;20473;-65
2023/07/21 08:29:53;;;;;;;5.63;1.65;;;;;;;29.29;78.34;100409.34;5007414;28;20113;-79
2023/07/21 08:32:19;;;;;;;2.58;1.60;;;;;;;29.08;76.93;100317.31;4998679;28;20152;-78
2023/07/21 08:34:45;;;;;;;3.28;2.28;;;;;;;29.23;76.98;100396.28;5006906;28;20141;-80
2023/07/21 08:37:12;;;;;;;2.30;1.50;;;;;;;29.43;78.63;100424.44;5004253;28;20070;-81
2023/07/21 08:39:37;;;;;;;3.90;2.00;;;;;;;29.96;73.62;100403.09;5003771;28;20050;-81
2023/07/21 08:42:08;;;;;;;3.90;2.35;;;;;;;29.41;73.66;100326.41;5002005;28;20061;-80
2023/07/21 08:44:34;;;;;;;4.47;2.25;;;;;;;29.38;69.29;100357.22;5001881;28;20052;-79
2023/07/21 08:47:00;;;;;;;3.05;1.95;;;;;;;30.20;69.65;100337.09;5006713;28;20112;-79
2023/07/21 08:49:26;;;;;;;2.95;1.95;;;;;;;30.32;68.21;100338.81;5003916;28;20057;-80
2023/07/21 08:51:52;;;;;;;2.38;1.55;;;;;;;30.39;66.81;100437.50;5000323;28;20069;-83
2023/07/21 08:54:17;;;;;;;2.45;1.52;;;;;;;29.70;68.47;100293.44;5001925;28;20568;-78
2023/07/21 08:56:43;;;;;;;4.53;2.63;;;;;;;31.06;68.18;100430.09;5007409;28;20105;-81
2023/07/21 08:59:08;;;;;;;2.85;1.65;;;;;;;30.57;65.57;100432.38;5006481;28;20046;-80
2023/07/21 09:01:34;;;;;;;2.78;2.35;;;;;;;29.91;71.87;100408.03;5006349;28;20038;-80
2023/07/21 09:04:00;;;;;;;2.45;1.73;;;;;;;31.03;69.73;100424.97;5000956;28;20050;-80
2023/07/21 09:06:25;;;;;;;4.75;2.75;;;;;;;29.80;70.83;100352.06;5001487;28;20485;-78
2023/07/21 09:08:53;;;;;;;4.15;1.67;;;;;;;30.60;67.39;100444.81;4999912;28;20152;-80
2023/07/21 09:11:19;;;;;;;2.67;1.58;;;;;;;31.17;63.59;100413.78;5006932;28;20034;-78
2023/07/21 09:13:53;;;;;;;5.55;3.45;;;;;;;31.33;61.23;100375.34;5006075;28;20052;-83
2023/07/21 09:16:19;;;;;;;3.08;1.50;;;;;;;31.86;59.82;100409.56;5003833;28;20189;-79
2023/07/21 09:18:48;;;;;;;3.08;1.90;;;;;;;30.48;62.74;100436.75;5001436;28;20408;-79
2023/07/21 09:21:23;;;;;;;2.72;1.65;;;;;;;32.04;59.59;100409.81;5001609;28;20112;-80
2023/07/21 09:23:50;;;;;;;1.88;1.33;;;;;;;31.60;60.14;100431.75;5002499;28;20046;-80
2023/07/21 09:26:21;;;;;;;3.13;1.60;;;;;;;31.71;57.54;100336.69;5002764;28;20065;-80
2023/07/21 09:28:47;;;;;;;3.28;1.52;;;;;;;32.59;54.25;100353.13;4989931;28;20528;-80
2023/07/21 09:31:13;;;;;;;3.47;1.77;;;;;;;31.63;53.14;100295.84;4986264;28;20129;-80
2023/07/21 09:33:41;;;;;;;4.07;2.22;;;;;;;32.80;52.87;100429.06;4985439;28;20145;-79
2023/07/21 09:36:11;;;;;;;3.50;2.40;;;;;;;31.81;55.56;100423.53;4976855;28;20339;-79
2023/07/21 09:38:38;;;;;;;5.13;2.30;;;;;;;33.11;53.97;100415.38;4999444;28;20030;-80
2023/07/21 09:41:09;;;;;;;2.55;1.73;;;;;;;32.80;51.39;100352.97;5005842;28;20057;-79
2023/07/21 09:43:35;;;;;;;3.38;1.60;;;;;;;33.10;50.59;100409.03;4988074;28;20045;-80
2023/07/21 09:46:02;;;;;;;3.83;1.63;;;;;;;32.82;50.73;100361.84;4983202;28;20038;-79
2023/07/21 09:48:29;;;;;;;4.70;2.05;;;;;;;33.65;48.67;100397.47;4986705;28;20045;-79
2023/07/21 09:51:00;;;;;;;2.58;1.52;;;;;;;34.03;47.48;100411.88;4979097;28;20403;-82
2023/07/21 09:53:35;;;;;;;1.75;1.20;;;;;;;31.38;50.14;100393.94;4998742;28;20344;-78
2023/07/21 09:56:03;;;;;;;3.35;2.55;;;;;;;33.01;47.66;100369.97;4988039;28;20405;-80
2023/07/21 09:58:30;;;;;;;5.88;2.45;;;;;;;31.43;50.54;100334.72;4999815;28;20042;-79
2023/07/21 10:01:01;;;;;;;2.25;1.30;;;;;;;30.97;52.10;100312.50;4994831;28;20220;-81
2023/07/21 10:03:26;;;;;;;2.83;1.60;;;;;;;31.27;49.49;100310.78;4987467;28;20057;-82
2023/07/21 10:05:53;;;;;;;2.70;1.58;;;;;;;31.74;51.01;100406.09;5005221;28;20478;-79
2023/07/21 10:08:21;;;;;;;1.80;1.25;;;;;;;32.94;49.00;100319.91;4986102;28;20118;-79
2023/07/21 10:10:47;;;;;;;7.88;2.08;;;;;;;33.04;48.49;100302.69;4996635;28;20042;-82
2023/07/21 10:13:13;;;;;;;5.30;2.45;;;;;;;31.23;49.29;100410.50;4994653;28;20097;-80
2023/07/21 10:15:40;;;;;;;3.25;1.83;;;;;;;30.87;52.05;100393.75;4992234;28;20062;-79
2023/07/21 10:18:11;;;;;;;1.98;1.35;;;;;;;33.02;48.62;100351.78;5000130;28;20036;-79
2023/07/21 10:20:43;;;;;;;4.13;2.00;;;;;;;32.66;50.99;100373.28;4983168;28;20042;-80
2023/07/21 10:23:11;;;;;;;2.60;1.42;;;;;;;32.11;49.60;100308.66;4986166;28;20053;-81
2023/07/21 10:26:09;;;;;;;2.25;1.60;;;;;;;33.10;47.92;100375.56;4996441;28;20053;-80
2023/07/21 10:28:46;;;;;;;2.58;1.52;;;;;;;33.99;46.65;100294.22;4988224;28;20050;-80
2023/07/21 10:31:20;;;;;;;3.35;2.03;;;;;;;33.43;47.30;100385.94;4985946;28;20084;-80
2023/07/21 10:34:14;;;;;;;3.10;1.48;;;;;;;33.10;47.07;100381.00;4989975;28;20058;-79
2023/07/21 10:36:52;;;;;;;3.22;1.98;;;;;;;32.94;48.60;100376.13;4992615;28;20065;-79
2023/07/21 10:39:19;;;;;;;2.67;1.83;;;;;;;32.32;48.18;100304.94;5001936;28;20129;-80
2023/07/21 10:41:46;;;;;;;2.05;1.25;;;;;;;33.64;46.66;100319.53;4989890;28;20812;-80
2023/07/21 10:44:12;;;;;;;1.90;1.30;;;;;;;33.62;47.81;100370.53;5000371;28;20096;-80
2023/07/21 10:46:43;;;;;;;3.15;2.00;;;;;;;32.12;48.75;100285.94;4990134;28;20051;-80
2023/07/21 10:49:10;;;;;;;3.63;2.10;;;;;;;32.11;49.35;100302.38;4988127;28;20125;-79
2023/07/21 10:51:38;;;;;;;2.17;1.35;;;;;;;33.23;48.96;100354.34;4995025;28;20049;-81
2023/07/21 10:54:04;;;;;;;1.50;1.08;;;;;;;33.57;46.33;100256.69;5006960;28;20540;-80
2023/07/21 10:56:34;;;;;;;3.03;2.03;;;;;;;32.19;48.38;100278.06;4982493;28;20486;-79
2023/07/21 10:58:59;;;;;;;6.93;2.13;;;;;;;33.80;47.61;100319.72;5006688;28;20192;-79
2023/07/21 11:01:26;;;;;;;4.20;2.22;;;;;;;33.59;46.11;100344.47;4995979;28;20046;-79
2023/07/21 11:03:52;;;;;;;1.83;1.27;;;;;;;34.49;46.12;100320.09;4997163;28;20053;-78
2023/07/21 11:06:18;;;;;;;2.30;1.20;;;;;;;33.81;45.46;100306.97;5002626;28;20785;-80
2023/07/21 11:08:44;;;;;;;5.03;2.13;;;;;;;34.91;44.92;100352.16;4993989;28;20036;-79
2023/07/21 11:11:10;;;;;;;2.03;1.35;;;;;;;33.11;45.57;100258.50;4982991;28;20532;-80
2023/07/21 11:13:38;;;;;;;3.95;2.10;;;;;;;33.86;44.76;100261.09;5003013;28;20470;-79
2023/07/21 11:16:03;;;;;;;1.85;1.15;;;;;;;33.82;45.55;100322.31;5011294;28;20140;-81
2023/07/21 11:18:29;;;;;;;2.55;2.03;;;;;;;34.47;45.31;100300.31;5002518;28;20208;-79
2023/07/21 11:20:55;;;;;;;2.70;1.60;;;;;;;33.91;45.90;100335.00;4984374;28;20038;-81